Time;durP1;ratioP1;P1;durP2;ratioP2;P2;SDS_P1;SDS_P2;PMS_P1;PMS_P2;Temp;Humidity;BMP_temperature;BMP_pressure;BME280_temperature;BME280_humidity;BME280_pressure;Samples;Min_cycle;Max_cycle;Signal;HPM_P1;HPM_P2
2020/12/02 00:05:11;;;;;;;3.78;1.20;;;7.30;99.90;;;;;;10455419;28;20048;-53
2020/12/02 00:10:32;;;;;;;3.60;1.55;;;7.30;99.90;;;;;;10453547;28;20044;-53
2020/12/02 00:15:53;;;;;;;4.95;2.58;;;7.30;99.90;;;;;;10453136;28;20052;-53
2020/12/02 00:21:14;;;;;;;5.97;1.60;;;7.20;99.90;;;;;;10455097;28;20114;-53
2020/12/02 00:26:35;;;;;;;6.00;1.30;;;7.20;99.90;;;;;;10455567;28;20029;-52
2020/12/02 00:31:56;;;;;;;6.25;2.33;;;7.20;99.90;;;;;;10452017;28;20052;-50
2020/12/02 00:37:18;;;;;;;3.50;2.03;;;7.30;99.90;;;;;;10451905;28;20037;-50
2020/12/02 00:42:39;;;;;;;4.78;1.20;;;7.20;99.90;;;;;;10455091;28;20067;-53
2020/12/02 00:48:00;;;;;;;5.95;2.30;;;7.20;99.90;;;;;;10454011;28;20036;-53
2020/12/02 00:53:27;;;;;;;5.70;2.30;;;7.20;99.90;;;;;;10458323;28;20037;-53
2020/12/02 00:58:52;;;;;;;4.50;2.05;;;7.20;99.90;;;;;;10454917;28;20040;-52
2020/12/02 01:04:21;;;;;;;3.50;1.77;;;7.20;99.90;;;;;;10448225;28;20130;-53
2020/12/02 01:09:42;;;;;;;5.07;1.45;;;7.20;99.90;;;;;;10451115;28;20032;-53
2020/12/02 01:15:09;;;;;;;8.82;1.35;;;7.10;99.90;;;;;;10452265;28;20641;-52
2020/12/02 01:20:30;;;;;;;4.10;2.20;;;7.10;99.90;;;;;;10450669;28;20045;-52
2020/12/02 01:25:51;;;;;;;5.38;2.25;;;7.10;99.90;;;;;;10455408;28;20044;-53
2020/12/02 01:31:12;;;;;;;5.70;1.60;;;7.10;99.90;;;;;;10456452;28;20462;-53
2020/12/02 01:36:50;;;;;;;5.85;2.33;;;7.10;99.90;;;;;;10440376;28;20086;-53
2020/12/02 01:42:12;;;;;;;4.32;1.70;;;7.10;99.90;;;;;;10444722;28;20476;-53
2020/12/02 01:47:58;;;;;;;5.90;1.80;;;7.10;99.90;;;;;;10456962;28;20093;-53
2020/12/02 01:53:42;;;;;;;4.13;1.55;;;7.10;99.90;;;;;;10456210;28;20029;-53
2020/12/02 01:59:08;;;;;;;6.35;2.83;;;7.10;99.90;;;;;;10454416;28;20102;-52
2020/12/02 02:04:38;;;;;;;7.28;2.38;;;7.00;99.90;;;;;;10456606;28;20041;-53
2020/12/02 02:10:08;;;;;;;4.30;1.48;;;7.00;99.90;;;;;;10454676;28;20037;-53
2020/12/02 02:15:35;;;;;;;3.10;1.30;;;7.00;99.90;;;;;;10434789;28;20420;-53
2020/12/02 02:21:18;;;;;;;3.78;1.13;;;7.00;99.90;;;;;;10443226;28;20040;-52
2020/12/02 02:26:57;;;;;;;5.43;2.40;;;7.00;99.90;;;;;;10436025;28;20396;-53
2020/12/02 02:32:23;;;;;;;5.05;2.05;;;7.00;99.90;;;;;;10439085;28;20040;-53
2020/12/02 02:37:44;;;;;;;7.75;2.20;;;7.00;99.90;;;;;;10442327;28;20436;-53
2020/12/02 02:43:06;;;;;;;6.63;1.85;;;7.00;99.90;;;;;;10438175;28;20037;-52
2020/12/02 02:48:27;;;;;;;2.92;1.30;;;7.00;99.90;;;;;;10443294;28;20552;-53
2020/12/02 02:53:48;;;;;;;8.32;1.85;;;6.90;99.90;;;;;;10442120;28;20048;-52
2020/12/02 02:59:10;;;;;;;6.45;2.50;;;6.90;99.90;;;;;;10443415;28;20625;-52
2020/12/02 03:04:33;;;;;;;4.47;1.55;;;7.00;99.90;;;;;;10441070;28;20041;-53
2020/12/02 03:09:53;;;;;;;10.63;2.22;;;6.90;99.90;;;;;;10429589;28;20080;-53
2020/12/02 03:15:16;;;;;;;6.65;1.63;;;6.90;99.90;;;;;;10443355;28;20053;-52
2020/12/02 03:20:44;;;;;;;5.95;2.17;;;6.90;99.90;;;;;;10456717;28;20607;-53
2020/12/02 03:26:05;;;;;;;6.03;1.87;;;6.90;99.90;;;;;;10449324;28;20051;-53
2020/12/02 03:31:27;;;;;;;6.50;1.70;;;6.90;99.90;;;;;;10452868;28;20070;-53
2020/12/02 03:36:48;;;;;;;5.57;1.63;;;6.90;99.90;;;;;;10443633;28;20048;-53
2020/12/02 03:42:09;;;;;;;6.13;2.08;;;6.90;99.90;;;;;;10442517;28;20040;-53
2020/12/02 03:47:30;;;;;;;4.47;2.05;;;6.80;99.90;;;;;;10435184;28;20048;-53
2020/12/02 03:52:51;;;;;;;8.63;2.13;;;6.80;99.90;;;;;;10452180;28;20045;-53
2020/12/02 03:58:12;;;;;;;4.95;1.70;;;6.80;99.90;;;;;;10451345;28;20175;-53
2020/12/02 04:03:37;;;;;;;5.65;2.35;;;6.80;99.90;;;;;;10445877;28;20057;-52
2020/12/02 04:08:58;;;;;;;4.57;2.08;;;6.80;99.90;;;;;;10438844;28;20082;-53
2020/12/02 04:14:19;;;;;;;9.27;2.83;;;6.80;99.90;;;;;;10452181;28;20389;-53
2020/12/02 04:19:40;;;;;;;7.45;2.65;;;6.80;99.90;;;;;;10451989;28;20078;-53
2020/12/02 04:25:03;;;;;;;7.88;3.25;;;6.90;99.90;;;;;;10454749;28;20037;-52
2020/12/02 04:30:24;;;;;;;10.52;2.30;;;6.80;99.90;;;;;;10446961;28;20496;-53
2020/12/02 04:35:45;;;;;;;11.05;3.85;;;6.80;99.90;;;;;;10458491;28;20064;-52
2020/12/02 04:41:10;;;;;;;9.45;2.25;;;6.80;99.90;;;;;;10450785;28;20099;-52
2020/12/02 04:46:33;;;;;;;9.02;3.03;;;6.70;99.90;;;;;;10451792;28;20048;-53
2020/12/02 04:52:01;;;;;;;6.32;2.30;;;6.80;99.90;;;;;;10451533;28;20064;-53
2020/12/02 04:57:22;;;;;;;8.20;2.78;;;6.80;99.90;;;;;;10446426;28;20037;-53
2020/12/02 05:02:43;;;;;;;5.43;2.30;;;6.70;99.90;;;;;;10457451;28;20475;-53
2020/12/02 05:08:33;;;;;;;4.45;2.67;;;6.70;99.90;;;;;;10441867;28;20127;-53
2020/12/02 05:14:01;;;;;;;9.80;3.78;;;6.70;99.90;;;;;;10452054;28;20558;-53
2020/12/02 05:19:22;;;;;;;9.65;3.67;;;6.70;99.90;;;;;;10455909;28;20037;-53
2020/12/02 05:24:49;;;;;;;7.28;2.95;;;6.70;99.90;;;;;;10449092;28;20032;-52
2020/12/02 05:30:19;;;;;;;8.02;2.53;;;6.70;99.90;;;;;;10453926;28;20033;-52
2020/12/02 05:36:13;;;;;;;8.43;2.70;;;6.70;99.90;;;;;;10457765;28;20131;-53
2020/12/02 05:41:34;;;;;;;6.43;2.53;;;6.70;99.90;;;;;;10448389;28;20036;-52
2020/12/02 05:46:58;;;;;;;3.95;2.35;;;6.60;99.90;;;;;;10456454;28;20036;-52
2020/12/02 05:52:33;;;;;;;5.50;2.28;;;6.60;99.90;;;;;;10450463;28;20033;-53
2020/12/02 05:58:14;;;;;;;8.18;2.50;;;6.60;99.90;;;;;;10452420;28;20036;-52
2020/12/02 06:03:35;;;;;;;9.80;2.85;;;6.60;99.90;;;;;;10452574;28;20036;-52
2020/12/02 06:08:57;;;;;;;7.07;2.47;;;6.60;99.90;;;;;;10457377;28;20106;-52
2020/12/02 06:14:29;;;;;;;10.30;2.28;;;6.60;99.90;;;;;;10453125;28;20119;-53
2020/12/02 06:19:51;;;;;;;5.93;2.75;;;6.60;99.90;;;;;;10446082;28;20072;-52
2020/12/02 06:25:57;;;;;;;9.23;2.45;;;6.60;99.90;;;;;;10456454;28;20277;-53
2020/12/02 06:31:18;;;;;;;6.00;2.20;;;6.60;99.90;;;;;;10456950;28;20032;-52
2020/12/02 06:36:39;;;;;;;7.97;2.58;;;6.50;99.90;;;;;;10454069;28;20105;-52
2020/12/02 06:42:02;;;;;;;6.82;1.98;;;6.60;99.90;;;;;;10449892;28;20037;-53
2020/12/02 06:47:27;;;;;;;5.85;2.20;;;6.50;99.90;;;;;;10455843;28;20041;-52
2020/12/02 06:52:49;;;;;;;9.18;2.35;;;6.50;99.90;;;;;;10463546;28;20474;-52
2020/12/02 06:58:16;;;;;;;7.70;3.08;;;6.50;99.90;;;;;;10453362;28;20050;-53
2020/12/02 07:03:45;;;;;;;8.82;2.10;;;6.50;99.90;;;;;;10457234;28;20047;-52
2020/12/02 07:09:16;;;;;;;12.55;2.85;;;6.50;99.90;;;;;;10456027;28;20044;-52
2020/12/02 07:14:42;;;;;;;8.95;2.88;;;6.50;99.90;;;;;;10454383;28;20074;-52
2020/12/02 07:20:08;;;;;;;7.85;2.50;;;6.50;99.90;;;;;;10469036;28;20492;-52
2020/12/02 07:25:29;;;;;;;5.35;2.25;;;6.50;99.90;;;;;;10463928;28;20029;-52
2020/12/02 07:30:50;;;;;;;9.48;2.65;;;6.50;99.90;;;;;;10462358;28;20128;-52
2020/12/02 07:36:16;;;;;;;6.47;3.35;;;6.50;99.90;;;;;;10458455;28;20045;-52
2020/12/02 07:41:53;;;;;;;7.63;2.38;;;6.50;99.90;;;;;;10462940;28;20048;-52
2020/12/02 07:47:16;;;;;;;9.05;2.92;;;6.50;99.90;;;;;;10462220;28;20478;-53
2020/12/02 07:52:42;;;;;;;10.55;2.53;;;6.50;99.90;;;;;;10460663;28;20045;-52
2020/12/02 07:58:04;;;;;;;7.40;2.45;;;6.50;99.90;;;;;;10463433;28;20036;-52
2020/12/02 08:03:36;;;;;;;8.93;2.55;;;6.50;99.90;;;;;;10460028;28;20045;-52
2020/12/02 08:08:56;;;;;;;6.75;2.40;;;6.50;99.90;;;;;;10466854;28;20035;-52
2020/12/02 08:14:27;;;;;;;7.53;2.92;;;6.50;99.90;;;;;;10463489;28;20041;-52
2020/12/02 08:19:51;;;;;;;12.30;2.47;;;6.50;99.90;;;;;;10457232;28;20116;-52
2020/12/02 08:25:21;;;;;;;8.10;3.85;;;6.50;99.90;;;;;;10460651;28;20036;-53
2020/12/02 08:30:42;;;;;;;8.00;3.22;;;6.50;99.90;;;;;;10457695;28;20040;-52
2020/12/02 08:36:06;;;;;;;13.80;3.85;;;6.50;99.90;;;;;;10452795;28;20095;-52
2020/12/02 08:41:27;;;;;;;9.68;2.42;;;6.50;99.90;;;;;;10461423;28;20036;-52
2020/12/02 08:46:54;;;;;;;9.48;2.40;;;6.60;99.90;;;;;;10460408;28;20044;-52
2020/12/02 08:52:15;;;;;;;11.60;3.15;;;6.50;99.90;;;;;;10459715;28;20530;-52
2020/12/02 08:57:36;;;;;;;9.32;2.20;;;6.50;99.90;;;;;;10455948;28;20071;-53
2020/12/02 09:02:57;;;;;;;7.45;2.63;;;6.50;99.90;;;;;;10461550;28;20041;-52
2020/12/02 09:08:18;;;;;;;8.27;3.58;;;6.50;99.90;;;;;;10459234;28;20045;-53
2020/12/02 09:13:39;;;;;;;7.80;3.05;;;6.50;99.90;;;;;;10461205;28;20702;-53
2020/12/02 09:19:02;;;;;;;9.05;3.35;;;6.60;99.90;;;;;;10454704;28;20039;-52
2020/12/02 09:24:24;;;;;;;9.13;3.08;;;6.60;99.90;;;;;;10459148;28;20047;-52
2020/12/02 09:29:45;;;;;;;9.43;3.58;;;6.50;99.90;;;;;;10457808;28;20079;-52
2020/12/02 09:35:07;;;;;;;5.47;2.53;;;6.50;99.90;;;;;;10454981;28;20517;-52
2020/12/02 09:40:28;;;;;;;9.60;2.80;;;6.60;99.90;;;;;;10462117;28;20535;-52
2020/12/02 09:46:17;;;;;;;11.68;3.17;;;6.60;99.90;;;;;;10458539;28;20029;-52
2020/12/02 09:51:40;;;;;;;14.52;3.58;;;6.60;99.90;;;;;;10454395;28;20033;-52
2020/12/02 09:57:06;;;;;;;11.32;3.00;;;6.60;99.90;;;;;;10459788;28;20135;-53
2020/12/02 10:02:36;;;;;;;10.40;3.20;;;6.50;99.90;;;;;;10471257;28;20052;-52
2020/12/02 10:08:27;;;;;;;4.40;1.98;;;6.50;99.90;;;;;;10459965;28;20078;-52
2020/12/02 10:14:06;;;;;;;9.25;2.17;;;6.50;99.90;;;;;;10470762;28;20040;-52
2020/12/02 10:19:27;;;;;;;12.27;3.38;;;6.50;99.90;;;;;;10460940;28;20051;-53
2020/12/02 10:25:01;;;;;;;7.70;2.88;;;6.60;99.90;;;;;;10469625;28;20039;-52
2020/12/02 10:30:25;;;;;;;9.02;3.00;;;6.60;99.90;;;;;;10467544;28;20465;-52
2020/12/02 10:35:47;;;;;;;17.83;3.25;;;6.60;99.90;;;;;;10466189;28;20033;-52
2020/12/02 10:41:35;;;;;;;7.55;2.78;;;6.60;99.90;;;;;;10463422;28;20064;-52
2020/12/02 10:47:26;;;;;;;6.25;3.15;;;6.60;99.90;;;;;;10462771;28;20033;-52
2020/12/02 10:52:50;;;;;;;8.30;3.50;;;6.60;99.90;;;;;;10465094;28;20484;-52
2020/12/02 10:58:22;;;;;;;7.25;2.35;;;6.70;99.90;;;;;;10466283;28;20086;-52
2020/12/02 11:03:46;;;;;;;6.15;3.03;;;6.70;99.90;;;;;;10462344;28;20039;-52
2020/12/02 11:09:24;;;;;;;7.10;3.50;;;6.80;99.90;;;;;;10461706;28;20137;-52
2020/12/02 11:15:04;;;;;;;10.75;3.33;;;6.80;99.90;;;;;;10466285;28;20045;-52
2020/12/02 11:20:32;;;;;;;6.63;2.63;;;6.80;99.90;;;;;;10460720;28;20100;-52
2020/12/02 11:26:03;;;;;;;10.50;2.60;;;6.80;99.90;;;;;;10453751;28;20072;-52
2020/12/02 11:31:39;;;;;;;6.38;2.58;;;6.90;99.90;;;;;;10455098;28;20039;-52
2020/12/02 11:37:17;;;;;;;8.38;2.72;;;7.00;99.90;;;;;;10454808;28;20055;-52
2020/12/02 11:42:44;;;;;;;5.97;2.57;;;7.00;99.90;;;;;;10452631;28;20041;-52
2020/12/02 11:48:14;;;;;;;5.03;2.65;;;6.90;99.90;;;;;;10450390;28;20111;-52
2020/12/02 11:53:40;;;;;;;5.97;1.75;;;6.80;99.90;;;;;;10453566;28;20492;-52
2020/12/02 11:59:06;;;;;;;9.63;3.28;;;6.70;99.90;;;;;;10459865;28;20357;-52
2020/12/02 12:04:33;;;;;;;6.53;2.38;;;6.60;99.90;;;;;;10455267;28;20609;-52
2020/12/02 12:10:13;;;;;;;10.25;2.90;;;6.70;99.90;;;;;;10457801;28;20033;-52
2020/12/02 12:16:02;;;;;;;6.45;1.67;;;6.70;99.90;;;;;;10454959;28;20056;-52
2020/12/02 12:21:49;;;;;;;7.60;2.40;;;6.70;99.90;;;;;;10457680;28;20108;-52
2020/12/02 12:27:12;;;;;;;6.93;3.58;;;6.70;99.90;;;;;;10441689;28;20047;-52
2020/12/02 12:32:45;;;;;;;9.82;3.55;;;6.70;99.90;;;;;;10450029;28;20064;-52
2020/12/02 12:38:27;;;;;;;10.38;3.13;;;6.80;99.90;;;;;;10446206;28;20502;-52
2020/12/02 12:43:57;;;;;;;8.65;3.42;;;6.90;99.90;;;;;;10450918;28;20726;-52
2020/12/02 12:49:18;;;;;;;8.85;3.83;;;6.80;99.90;;;;;;10454550;28;20058;-52
2020/12/02 12:54:38;;;;;;;12.63;3.08;;;6.80;99.90;;;;;;10434362;28;20043;-52
2020/12/02 13:00:06;;;;;;;10.52;3.30;;;7.00;99.90;;;;;;10445710;28;23298;-52
2020/12/02 13:05:27;;;;;;;10.27;2.33;;;6.80;99.90;;;;;;10447759;28;20037;-52
2020/12/02 13:11:00;;;;;;;7.72;2.40;;;6.70;99.90;;;;;;10455816;28;20807;-52
2020/12/02 13:16:33;;;;;;;4.60;1.85;;;6.70;99.90;;;;;;10450152;28;20131;-52
2020/12/02 13:22:00;;;;;;;9.60;3.28;;;6.70;99.90;;;;;;10454857;28;20481;-52
2020/12/02 13:27:31;;;;;;;9.65;3.97;;;6.80;99.90;;;;;;10446675;28;20032;-52
2020/12/02 13:33:01;;;;;;;8.07;3.65;;;6.80;99.90;;;;;;10454826;28;20040;-52
2020/12/02 13:38:22;;;;;;;9.13;3.47;;;6.70;99.90;;;;;;10451837;28;20033;-52
2020/12/02 13:43:44;;;;;;;7.07;2.75;;;6.70;99.90;;;;;;10453230;28;20064;-51
2020/12/02 13:49:10;;;;;;;10.73;2.45;;;6.80;99.90;;;;;;10457576;28;20051;-52
2020/12/02 13:54:45;;;;;;;13.10;3.25;;;6.80;99.90;;;;;;10461103;28;20040;-52
2020/12/02 14:00:30;;;;;;;5.65;2.60;;;7.00;99.90;;;;;;10455031;28;20044;-52
2020/12/02 14:06:06;;;;;;;8.88;2.92;;;6.90;99.90;;;;;;10460807;28;20080;-52
2020/12/02 14:11:43;;;;;;;6.82;2.90;;;6.90;99.90;;;;;;10459322;28;20503;-52
2020/12/02 14:17:04;;;;;;;9.13;2.78;;;6.90;99.90;;;;;;10461046;28;20110;-52
2020/12/02 14:22:28;;;;;;;10.32;3.33;;;6.80;99.90;;;;;;10468705;28;20119;-52
2020/12/02 14:27:52;;;;;;;7.90;3.80;;;6.80;99.90;;;;;;10459235;28;20528;-52
2020/12/02 14:33:16;;;;;;;8.82;2.90;;;6.90;99.90;;;;;;10459413;28;20144;-52
2020/12/02 14:38:37;;;;;;;8.98;3.30;;;6.80;99.90;;;;;;10459525;28;20191;-52
2020/12/02 14:43:58;;;;;;;10.02;4.57;;;6.80;99.90;;;;;;10466251;28;20079;-52
2020/12/02 14:49:19;;;;;;;8.77;2.88;;;6.70;99.90;;;;;;10463283;28;20036;-52
2020/12/02 14:54:40;;;;;;;8.73;2.38;;;6.70;99.90;;;;;;10456697;28;20044;-52
2020/12/02 15:00:12;;;;;;;10.27;2.80;;;6.70;99.90;;;;;;10462238;28;20530;-52
2020/12/02 15:05:33;;;;;;;8.35;3.30;;;6.60;99.90;;;;;;10458824;28;20126;-52
2020/12/02 15:10:59;;;;;;;4.97;2.30;;;6.50;99.90;;;;;;10455324;28;20033;-52
2020/12/02 15:16:23;;;;;;;6.60;2.45;;;6.50;99.90;;;;;;10462119;28;20048;-52
2020/12/02 15:21:45;;;;;;;12.65;3.35;;;6.60;99.90;;;;;;10455799;28;20033;-52
2020/12/02 15:27:12;;;;;;;9.95;3.90;;;6.60;99.90;;;;;;10453086;28;20595;-52
2020/12/02 15:32:34;;;;;;;9.88;2.40;;;6.60;99.90;;;;;;10458934;28;20128;-52
2020/12/02 15:38:11;;;;;;;5.18;3.25;;;6.60;99.90;;;;;;10459072;28;20040;-52
2020/12/02 15:44:03;;;;;;;8.02;3.60;;;6.40;99.90;;;;;;10457468;28;20059;-52
2020/12/02 15:49:49;;;;;;;12.38;4.15;;;6.40;99.90;;;;;;10459364;28;20560;-52
2020/12/02 15:55:38;;;;;;;8.90;3.10;;;6.40;99.90;;;;;;10466506;28;20152;-52
2020/12/02 16:01:00;;;;;;;10.25;3.08;;;6.40;99.90;;;;;;10457941;28;20044;-52
2020/12/02 16:06:21;;;;;;;15.27;3.83;;;6.40;99.90;;;;;;10459484;28;20072;-52
2020/12/02 16:11:43;;;;;;;9.73;3.85;;;6.50;99.90;;;;;;10458500;28;20043;-52
2020/12/02 16:17:08;;;;;;;12.30;3.10;;;6.40;99.90;;;;;;10458944;28;20104;-52
2020/12/02 16:22:59;;;;;;;10.57;4.25;;;6.30;99.90;;;;;;10458870;28;20037;-52
2020/12/02 16:28:27;;;;;;;11.60;4.40;;;6.40;99.90;;;;;;10425502;28;20049;-52
2020/12/02 16:33:50;;;;;;;14.27;3.40;;;6.40;99.90;;;;;;10451075;28;20110;-52
2020/12/02 16:39:13;;;;;;;14.55;4.53;;;6.50;99.90;;;;;;10461811;28;20039;-52
2020/12/02 16:45:02;;;;;;;12.23;2.50;;;6.50;99.90;;;;;;10454480;28;20037;-52
2020/12/02 16:50:38;;;;;;;11.73;4.17;;;6.40;99.90;;;;;;10458203;28;20044;-52
2020/12/02 16:56:09;;;;;;;13.57;3.70;;;6.40;99.90;;;;;;10461491;28;20294;-52
2020/12/02 17:01:30;;;;;;;19.05;3.85;;;6.50;99.90;;;;;;10451771;28;20048;-52
2020/12/02 17:06:51;;;;;;;15.80;4.47;;;6.40;99.90;;;;;;10452968;28;20036;-52
2020/12/02 17:12:40;;;;;;;15.27;3.92;;;6.40;99.90;;;;;;10471370;28;20037;-52
2020/12/02 17:18:38;;;;;;;14.05;4.60;;;6.40;99.90;;;;;;10450623;28;20060;-52
2020/12/02 17:24:34;;;;;;;12.68;3.97;;;6.40;99.90;;;;;;10464837;28;20040;-52
2020/12/02 17:30:09;;;;;;;14.18;3.88;;;6.30;99.90;;;;;;10453986;28;20494;-51
2020/12/02 17:36:01;;;;;;;13.70;4.60;;;6.30;99.90;;;;;;10450149;28;20931;-52
2020/12/02 17:41:43;;;;;;;7.15;2.97;;;6.30;99.90;;;;;;10460243;28;20043;-52
2020/12/02 17:47:19;;;;;;;12.63;5.88;;;6.30;99.90;;;;;;10448476;28;20131;-52
2020/12/02 17:52:55;;;;;;;17.23;4.35;;;6.20;99.90;;;;;;10446554;28;20086;-52
2020/12/02 17:58:16;;;;;;;19.92;4.13;;;6.20;99.90;;;;;;10448817;28;20165;-52
2020/12/02 18:03:46;;;;;;;11.70;3.75;;;6.20;99.90;;;;;;10450676;28;20098;-52
2020/12/02 18:09:24;;;;;;;12.43;3.90;;;6.20;99.90;;;;;;10443547;28;21183;-52
2020/12/02 18:15:06;;;;;;;9.65;3.75;;;6.10;99.90;;;;;;10443747;28;20044;-52
2020/12/02 18:20:39;;;;;;;13.68;5.10;;;6.20;99.90;;;;;;10452167;28;20040;-52
2020/12/02 18:26:31;;;;;;;10.77;3.47;;;6.20;99.90;;;;;;10448407;28;20523;-52
2020/12/02 18:31:56;;;;;;;8.70;3.58;;;6.20;99.90;;;;;;10452881;28;20343;-52
2020/12/02 18:37:37;;;;;;;11.40;4.13;;;6.20;99.90;;;;;;10452976;28;20037;-52
2020/12/02 18:43:35;;;;;;;7.65;3.80;;;6.20;99.90;;;;;;10454750;28;20146;-52
2020/12/02 18:49:05;;;;;;;9.65;3.83;;;6.30;99.90;;;;;;10457079;28;20047;-52
2020/12/02 18:54:26;;;;;;;11.98;4.07;;;6.20;99.90;;;;;;10453275;28;20465;-52
2020/12/02 18:59:49;;;;;;;9.40;3.67;;;6.20;99.90;;;;;;10454258;28;20043;-52
2020/12/02 19:05:17;;;;;;;10.07;3.55;;;6.20;99.90;;;;;;10459001;28;20036;-52
2020/12/02 19:10:42;;;;;;;10.75;3.78;;;6.20;99.90;;;;;;10446974;28;20041;-53
2020/12/02 19:16:28;;;;;;;13.77;2.83;;;6.20;99.90;;;;;;10443433;28;20119;-51
2020/12/02 19:22:26;;;;;;;7.05;3.20;;;6.20;99.90;;;;;;10455067;28;20056;-51
2020/12/02 19:28:38;;;;;;;14.63;4.32;;;6.30;99.90;;;;;;10455448;28;20527;-52
2020/12/02 19:34:08;;;;;;;14.07;4.50;;;6.20;99.90;;;;;;10427425;28;20650;-52
2020/12/02 19:39:41;;;;;;;18.95;4.25;;;6.30;99.90;;;;;;10455243;28;20037;-51
2020/12/02 19:45:13;;;;;;;11.48;2.67;;;6.30;99.90;;;;;;10456737;28;20166;-51
2020/12/02 19:50:35;;;;;;;15.48;3.55;;;6.30;99.90;;;;;;10457419;28;20035;-51
2020/12/02 19:56:08;;;;;;;10.57;3.13;;;6.40;99.90;;;;;;10455359;28;20041;-51
2020/12/02 20:02:02;;;;;;;12.10;4.18;;;6.30;99.90;;;;;;10454347;28;20120;-51
2020/12/02 20:08:03;;;;;;;16.92;4.82;;;6.30;99.90;;;;;;10457278;28;20044;-50
2020/12/02 20:13:45;;;;;;;14.18;3.42;;;6.20;99.90;;;;;;10451128;28;20548;-50
2020/12/02 20:19:30;;;;;;;13.38;4.13;;;6.10;99.90;;;;;;10451859;28;20053;-51
2020/12/02 20:24:59;;;;;;;10.85;4.05;;;6.10;99.90;;;;;;10453141;28;20193;-51
2020/12/02 20:30:22;;;;;;;11.52;3.60;;;6.10;99.90;;;;;;10448418;28;20024;-50
2020/12/02 20:35:46;;;;;;;20.42;4.93;;;6.10;99.90;;;;;;10459019;28;20068;-51
2020/12/02 20:41:09;;;;;;;16.15;5.97;;;6.10;99.90;;;;;;10457080;28;20488;-51
2020/12/02 20:46:50;;;;;;;17.40;4.40;;;6.10;99.90;;;;;;10458573;28;20040;-51
2020/12/02 20:52:40;;;;;;;9.40;3.15;;;6.20;99.90;;;;;;10453279;28;20233;-51
2020/12/02 20:58:17;;;;;;;18.90;4.70;;;6.20;99.90;;;;;;10445781;28;20114;-51
2020/12/02 21:03:38;;;;;;;13.07;4.40;;;6.20;99.90;;;;;;10452208;28;20485;-51
2020/12/02 21:08:59;;;;;;;13.70;4.55;;;6.20;99.90;;;;;;10462218;28;20036;-50
2020/12/02 21:14:20;;;;;;;19.52;4.53;;;6.30;99.90;;;;;;10454125;28;20036;-51
2020/12/02 21:20:10;;;;;;;14.32;4.25;;;6.20;99.90;;;;;;10462771;28;20045;-51
2020/12/02 21:25:52;;;;;;;22.40;6.38;;;6.20;99.90;;;;;;10454924;28;20162;-51
2020/12/02 21:31:50;;;;;;;18.25;5.03;;;6.10;99.90;;;;;;10454298;28;20458;-51
2020/12/02 21:37:29;;;;;;;15.25;5.45;;;6.20;99.90;;;;;;10463365;28;20094;-51
2020/12/02 21:43:08;;;;;;;15.00;4.38;;;6.10;99.90;;;;;;10463209;28;20420;-51
2020/12/02 21:48:58;;;;;;;14.32;4.97;;;6.10;99.90;;;;;;10444391;28;20044;-51
2020/12/02 21:54:27;;;;;;;;;;;6.30;99.90;;;;;;10457376;28;20128;-51
2020/12/02 21:59:48;;;;;;;13.32;4.07;;;6.20;99.90;;;;;;10450089;28;20341;-51
2020/12/02 22:05:50;;;;;;;18.88;4.10;;;6.20;99.90;;;;;;10439247;28;20025;-51
2020/12/02 22:11:32;;;;;;;20.42;5.10;;;6.20;99.90;;;;;;10402889;28;21289;-51
2020/12/02 22:17:22;;;;;;;17.33;3.75;;;6.20;99.90;;;;;;10457678;28;20098;-51
2020/12/02 22:23:10;;;;;;;13.27;3.70;;;6.20;99.90;;;;;;10457470;28;20039;-51
2020/12/02 22:28:33;;;;;;;18.23;4.53;;;6.20;99.90;;;;;;10455008;28;20048;-52
2020/12/02 22:34:08;;;;;;;12.15;4.10;;;6.30;99.90;;;;;;10454110;28;20049;-51
2020/12/02 22:40:01;;;;;;;10.80;4.07;;;6.30;99.90;;;;;;10456289;28;20580;-51
2020/12/02 22:45:39;;;;;;;16.05;4.40;;;6.20;99.90;;;;;;10448093;28;20032;-51
2020/12/02 22:51:06;;;;;;;16.63;5.82;;;6.20;99.90;;;;;;10454608;28;20090;-51
2020/12/02 22:56:27;;;;;;;16.55;5.22;;;6.20;99.90;;;;;;10455444;28;20093;-51
2020/12/02 23:01:49;;;;;;;18.08;5.72;;;6.40;99.90;;;;;;10454573;28;20443;-51
2020/12/02 23:07:20;;;;;;;18.95;3.60;;;6.40;99.90;;;;;;10452017;28;20056;-51
2020/12/02 23:12:43;;;;;;;20.35;4.68;;;6.40;99.90;;;;;;10446090;28;20032;-51
2020/12/02 23:18:24;;;;;;;13.80;5.28;;;6.40;99.90;;;;;;10438248;28;20125;-51
2020/12/02 23:23:51;;;;;;;16.52;6.30;;;6.40;99.90;;;;;;10447489;28;20044;-51
2020/12/02 23:29:24;;;;;;;10.52;4.00;;;6.40;99.90;;;;;;10444930;28;20444;-51
2020/12/02 23:34:45;;;;;;;17.95;5.82;;;6.30;99.90;;;;;;10439104;28;20902;-51
2020/12/02 23:40:11;;;;;;;23.02;6.10;;;6.40;99.90;;;;;;10439821;28;20075;-51
2020/12/02 23:45:54;;;;;;;18.48;5.55;;;6.40;99.90;;;;;;10438378;28;20599;-51
2020/12/02 23:51:16;;;;;;;13.52;4.00;;;6.30;99.90;;;;;;10446519;28;20068;-51
2020/12/02 23:56:37;;;;;;;9.77;4.40;;;6.20;99.90;;;;;;10448021;28;20429;-51
